createdAt,value
2022-08-04T00:02:11.021Z,15.99
2022-08-04T00:04:46.275Z,18.61
2022-08-04T00:07:44.032Z,18.63
2022-08-04T00:10:14.916Z,18.60
2022-08-04T00:12:48.273Z,18.24
2022-08-04T00:15:19.664Z,18.46
2022-08-04T00:17:52.192Z,18.47
2022-08-04T00:20:21.173Z,18.45
2022-08-04T00:22:53.336Z,18.20
2022-08-04T00:25:21.364Z,18.54
2022-08-04T00:27:50.181Z,18.52
2022-08-04T00:30:18.193Z,18.51
2022-08-04T00:32:46.410Z,18.58
2022-08-04T00:35:15.739Z,18.62
2022-08-04T00:37:48.443Z,18.53
2022-08-04T00:40:24.976Z,18.43
2022-08-04T00:43:04.780Z,18.33
2022-08-04T00:46:16.413Z,18.38
2022-08-04T00:48:52.127Z,18.06
2022-08-04T00:51:32.373Z,17.49
2022-08-04T00:54:08.132Z,18.24
2022-08-04T00:56:50.728Z,18.14
2022-08-04T00:59:34.287Z,18.38
2022-08-04T01:02:08.991Z,18.28
2022-08-04T01:04:50.814Z,18.19
2022-08-04T01:07:56.739Z,18.09
2022-08-04T01:10:39.144Z,17.84
2022-08-04T01:13:37.397Z,17.88
2022-08-04T01:16:07.625Z,17.83
2022-08-04T01:18:46.924Z,17.08
2022-08-04T01:21:46.220Z,17.79
2022-08-04T01:24:45.605Z,17.43
2022-08-04T01:27:27.660Z,17.14
2022-08-04T01:30:00.778Z,17.86
2022-08-04T01:32:35.544Z,18.05
2022-08-04T01:35:07.656Z,18.04
2022-08-04T01:37:50.607Z,18.25
2022-08-04T01:40:18.887Z,18.24
2022-08-04T01:42:46.823Z,18.11
2022-08-04T01:45:16.865Z,17.85
2022-08-04T01:47:51.797Z,17.76
2022-08-04T01:50:20.035Z,17.68
2022-08-04T01:52:51.150Z,17.50
2022-08-04T01:55:19.705Z,17.47
2022-08-04T01:57:49.846Z,16.66
2022-08-04T02:00:21.067Z,17.63
2022-08-04T02:02:51.544Z,17.43
2022-08-04T02:05:21.037Z,17.14
2022-08-04T02:08:08.592Z,16.70
2022-08-04T02:10:49.283Z,17.42
2022-08-04T02:13:22.517Z,17.23
2022-08-04T02:16:03.537Z,16.96
2022-08-04T02:18:34.440Z,16.89
2022-08-04T02:21:03.281Z,16.99
2022-08-04T02:23:36.002Z,17.05
2022-08-04T02:26:06.282Z,17.06
2022-08-04T02:28:42.443Z,17.05
2022-08-04T02:31:29.051Z,16.93
2022-08-04T02:34:07.396Z,16.62
2022-08-04T02:36:38.357Z,16.86
2022-08-04T02:39:07.674Z,16.90
2022-08-04T02:41:35.999Z,16.79
2022-08-04T02:44:07.373Z,16.88
2022-08-04T02:46:38.064Z,16.77
2022-08-04T02:49:09.355Z,16.69
2022-08-04T02:51:39.375Z,16.73
2022-08-04T02:54:10.331Z,16.88
2022-08-04T02:56:40.658Z,16.87
2022-08-04T02:59:13.458Z,16.82
2022-08-04T03:01:58.003Z,16.82
2022-08-04T03:04:47.377Z,16.80
2022-08-04T03:08:04.897Z,16.82
2022-08-04T03:11:13.985Z,16.65
2022-08-04T03:14:09.645Z,16.87
2022-08-04T03:17:17.773Z,16.75
2022-08-04T03:20:13.796Z,16.82
2022-08-04T03:23:14.964Z,16.91
2022-08-04T03:26:08.509Z,17.27
2022-08-04T03:29:04.505Z,16.98
2022-08-04T03:32:27.900Z,16.88
2022-08-04T03:35:13.626Z,16.84
2022-08-04T03:38:11.254Z,16.37
2022-08-04T03:41:04.430Z,16.75
2022-08-04T03:44:01.781Z,16.81
2022-08-04T03:47:00.112Z,16.85
2022-08-04T03:50:09.019Z,16.83
2022-08-04T03:53:09.218Z,16.95
2022-08-04T03:55:46.335Z,17.10
2022-08-04T03:58:39.790Z,16.95
2022-08-04T04:01:24.433Z,16.91
2022-08-04T04:04:09.990Z,16.91
2022-08-04T04:07:03.519Z,16.80
2022-08-04T04:10:19.106Z,16.61
2022-08-04T04:13:26.220Z,16.84
2022-08-04T04:16:27.228Z,17.20
2022-08-04T04:19:37.908Z,17.25
2022-08-04T04:22:34.300Z,17.14
2022-08-04T04:25:21.915Z,17.08
2022-08-04T04:28:45.104Z,17.03
2022-08-04T04:31:33.543Z,17.09
2022-08-04T04:34:10.568Z,17.33
2022-08-04T04:36:50.442Z,17.45
2022-08-04T04:39:31.050Z,17.66
2022-08-04T04:42:15.481Z,17.69
2022-08-04T04:45:13.974Z,17.39
2022-08-04T04:48:08.991Z,17.52
2022-08-04T04:50:58.519Z,17.61
2022-08-04T04:53:34.439Z,17.76
2022-08-04T04:56:10.256Z,17.97
2022-08-04T04:58:39.551Z,17.96
2022-08-04T05:01:24.509Z,17.74
2022-08-04T05:04:17.868Z,18.15
2022-08-04T05:06:59.346Z,18.32
2022-08-04T05:09:44.469Z,18.47
2022-08-04T05:14:32.884Z,18.44
2022-08-04T05:15:35.489Z,18.84
2022-08-04T05:18:07.595Z,18.94
2022-08-04T05:20:39.945Z,18.90
2022-08-04T05:23:14.732Z,19.47
2022-08-04T05:25:58.721Z,19.94
2022-08-04T05:28:34.682Z,21.48
2022-08-04T05:31:07.224Z,22.31
2022-08-04T05:33:42.769Z,22.21
2022-08-04T05:36:32.695Z,22.56
2022-08-04T05:39:08.346Z,22.48
2022-08-04T05:41:45.607Z,22.72
2022-08-04T05:44:19.806Z,23.07
2022-08-04T05:46:53.679Z,22.81
2022-08-04T05:49:23.935Z,23.96
2022-08-04T05:51:53.116Z,24.37
2022-08-04T05:54:23.065Z,24.57
2022-08-04T05:56:52.129Z,24.70
2022-08-04T05:59:25.687Z,25.05
2022-08-04T06:01:57.577Z,24.87
2022-08-04T06:04:32.318Z,24.14
2022-08-04T06:07:00.327Z,23.60
2022-08-04T06:09:28.541Z,23.05
2022-08-04T06:12:03.880Z,22.63
2022-08-04T06:14:39.402Z,20.10
2022-08-04T06:18:32.175Z,21.80
2022-08-04T06:20:19.056Z,21.54
2022-08-04T06:22:50.777Z,21.74
2022-08-04T06:25:26.043Z,21.93
2022-08-04T06:27:56.006Z,22.99
2022-08-04T06:30:27.295Z,24.36
2022-08-04T06:33:04.282Z,24.19
2022-08-04T06:35:33.904Z,23.99
2022-08-04T06:38:03.938Z,23.31
2022-08-04T06:40:34.592Z,22.58
2022-08-04T06:43:04.340Z,22.36
2022-08-04T06:45:37.011Z,22.23
2022-08-04T06:48:06.548Z,22.57
2022-08-04T06:51:25.473Z,22.48
2022-08-04T06:53:25.310Z,22.29
2022-08-04T06:55:54.973Z,22.48
2022-08-04T06:58:23.684Z,22.72
2022-08-04T07:00:54.021Z,23.92
2022-08-04T07:03:22.877Z,23.71
2022-08-04T07:05:53.090Z,23.73
2022-08-04T07:08:21.948Z,24.24
2022-08-04T07:10:50.482Z,24.89
2022-08-04T07:13:19.562Z,25.46
2022-08-04T07:15:49.808Z,25.22
2022-08-04T07:18:19.253Z,25.71
2022-08-04T07:20:47.928Z,25.91
2022-08-04T07:23:19.865Z,26.74
2022-08-04T07:26:11.175Z,26.43
2022-08-04T07:28:41.045Z,26.16
2022-08-04T07:31:31.794Z,26.02
2022-08-04T07:34:16.535Z,26.38
2022-08-04T07:36:50.333Z,26.72
2022-08-04T07:39:27.670Z,26.14
2022-08-04T07:41:58.393Z,27.72
2022-08-04T07:44:26.485Z,27.12
2022-08-04T07:46:54.956Z,28.17
2022-08-04T07:49:52.173Z,29.14
2022-08-04T07:52:14.073Z,28.65
2022-08-04T07:54:43.385Z,27.06
2022-08-04T07:57:18.967Z,25.92
2022-08-04T07:59:50.280Z,25.70
2022-08-04T08:02:21.363Z,26.47
2022-08-04T08:04:51.290Z,27.43
2022-08-04T08:07:20.541Z,28.17
2022-08-04T08:09:49.180Z,29.37
2022-08-04T08:12:36.282Z,29.57
2022-08-04T08:15:06.648Z,29.71
2022-08-04T08:17:57.998Z,29.38
2022-08-04T08:20:28.991Z,29.22
2022-08-04T08:22:58.443Z,29.09
2022-08-04T08:25:26.465Z,29.94
2022-08-04T08:27:56.204Z,28.84
2022-08-04T08:30:24.961Z,29.56
2022-08-04T08:33:03.148Z,30.03
2022-08-04T08:35:53.147Z,29.19
2022-08-04T08:38:32.584Z,29.16
2022-08-04T08:41:21.596Z,28.52
2022-08-04T08:44:07.636Z,28.48
2022-08-04T08:46:50.144Z,28.55
2022-08-04T08:50:01.902Z,28.28
2022-08-04T08:53:01.351Z,28.65
2022-08-04T08:55:42.785Z,29.52
2022-08-04T08:58:36.581Z,29.44
2022-08-04T09:01:12.084Z,29.45
2022-08-04T09:04:07.520Z,30.19
2022-08-04T09:06:52.066Z,31.33
2022-08-04T09:09:47.389Z,31.84
2022-08-04T09:12:25.788Z,31.57
2022-08-04T09:15:00.429Z,30.86
2022-08-04T09:17:34.406Z,32.09
2022-08-04T09:20:07.563Z,32.10
2022-08-04T09:22:45.590Z,32.65
2022-08-04T09:25:25.191Z,33.00
2022-08-04T09:27:55.970Z,32.17
2022-08-04T09:30:30.301Z,31.77
2022-08-04T09:33:06.659Z,32.45
2022-08-04T09:35:43.365Z,32.83
2022-08-04T09:38:20.775Z,33.20
2022-08-04T09:40:58.587Z,32.00
2022-08-04T09:43:59.200Z,33.18
2022-08-04T09:46:35.454Z,32.51
2022-08-04T09:49:08.810Z,31.69
2022-08-04T09:51:58.473Z,31.11
2022-08-04T09:54:34.708Z,30.76
2022-08-04T09:57:15.421Z,31.40
2022-08-04T09:59:51.503Z,32.36
2022-08-04T10:02:23.152Z,32.89
2022-08-04T10:04:54.464Z,31.94
2022-08-04T10:07:59.654Z,31.50
2022-08-04T10:10:53.401Z,30.94
2022-08-04T10:13:37.955Z,32.56
2022-08-04T10:16:32.072Z,32.48
2022-08-04T10:19:08.538Z,32.48
2022-08-04T10:21:59.159Z,32.14
2022-08-04T10:24:43.783Z,31.39
2022-08-04T10:27:22.511Z,31.89
2022-08-04T10:29:52.377Z,32.67
2022-08-04T10:32:24.369Z,32.45
2022-08-04T10:35:05.100Z,32.45
2022-08-04T10:38:00.015Z,33.22
2022-08-04T10:40:39.733Z,33.96
2022-08-04T10:43:22.003Z,33.76
2022-08-04T10:45:58.051Z,34.22
2022-08-04T10:48:36.896Z,35.05
2022-08-04T10:51:20.768Z,35.90
2022-08-04T10:53:55.413Z,37.22
2022-08-04T10:56:31.293Z,36.85
2022-08-04T10:59:03.965Z,35.61
2022-08-04T11:02:00.164Z,34.46
2022-08-04T11:04:32.484Z,33.53
2022-08-04T11:07:01.996Z,32.59
2022-08-04T11:09:31.324Z,31.47
2022-08-04T11:12:06.450Z,32.75
2022-08-04T11:14:40.897Z,33.41
2022-08-04T11:17:16.716Z,33.13
2022-08-04T11:19:53.839Z,32.99
2022-08-04T11:22:27.158Z,32.16
2022-08-04T11:25:01.102Z,32.87
2022-08-04T11:27:36.780Z,32.52
2022-08-04T11:30:13.667Z,34.24
2022-08-04T11:32:52.237Z,33.64
2022-08-04T11:35:28.692Z,32.54
2022-08-04T11:38:06.040Z,32.34
2022-08-04T11:40:38.790Z,32.20
2022-08-04T11:43:12.157Z,34.02
2022-08-04T11:45:48.670Z,35.23
2022-08-04T11:48:24.146Z,36.55
2022-08-04T11:50:55.147Z,35.83
2022-08-04T11:53:25.689Z,36.10
2022-08-04T11:56:08.140Z,35.29
2022-08-04T11:58:38.681Z,35.20
2022-08-04T12:01:21.653Z,35.36
2022-08-04T12:04:04.533Z,35.88
2022-08-04T12:06:40.494Z,35.05
2022-08-04T12:09:13.927Z,33.73
2022-08-04T12:11:55.874Z,33.18
2022-08-04T12:14:31.841Z,32.53
2022-08-04T12:17:03.680Z,32.63
2022-08-04T12:20:03.528Z,32.37
2022-08-04T12:22:32.216Z,31.95
2022-08-04T12:25:04.889Z,31.82
2022-08-04T12:27:36.141Z,31.45
2022-08-04T12:30:59.487Z,31.81
2022-08-04T12:33:01.430Z,31.41
2022-08-04T12:35:35.088Z,31.20
2022-08-04T12:38:07.480Z,31.28
2022-08-04T12:40:43.179Z,30.97
2022-08-04T12:43:16.289Z,31.11
2022-08-04T12:45:48.694Z,31.04
2022-08-04T12:48:21.277Z,30.83
2022-08-04T12:50:53.863Z,30.76
2022-08-04T12:53:32.235Z,30.67
2022-08-04T12:56:02.573Z,30.72
2022-08-04T12:58:42.997Z,30.63
2022-08-04T13:02:11.241Z,30.91
2022-08-04T13:04:11.703Z,30.97
2022-08-04T13:06:43.611Z,31.02
2022-08-04T13:09:17.492Z,31.39
2022-08-04T13:11:51.776Z,31.86
2022-08-04T13:14:27.636Z,32.34
2022-08-04T13:16:58.712Z,32.42
2022-08-04T13:19:27.168Z,31.99
2022-08-04T13:22:03.015Z,31.78
2022-08-04T13:24:37.579Z,31.58
2022-08-04T13:27:23.236Z,31.88
2022-08-04T13:29:58.836Z,31.86
2022-08-04T13:32:31.073Z,31.83
2022-08-04T13:35:03.866Z,31.70
2022-08-04T13:37:40.530Z,31.68
2022-08-04T13:40:13.543Z,32.13
2022-08-04T13:42:47.284Z,32.63
2022-08-04T13:45:20.651Z,32.47
2022-08-04T13:47:51.598Z,32.04
2022-08-04T13:50:23.568Z,31.77
2022-08-04T13:52:57.189Z,31.19
2022-08-04T13:55:28.523Z,31.09
2022-08-04T13:58:00.347Z,30.65
2022-08-04T14:00:40.470Z,31.15
2022-08-04T14:03:21.749Z,31.25
2022-08-04T14:06:15.922Z,31.19
2022-08-04T14:08:57.011Z,30.81
2022-08-04T14:12:09.878Z,30.33
2022-08-04T14:14:25.455Z,30.54
2022-08-04T14:17:02.012Z,30.47
2022-08-04T14:19:48.513Z,30.69
2022-08-04T14:22:31.170Z,29.68
2022-08-04T14:25:04.176Z,30.69
2022-08-04T14:27:42.580Z,30.65
2022-08-04T14:30:23.697Z,30.70
2022-08-04T14:34:01.617Z,30.43
2022-08-04T14:35:58.093Z,30.21
2022-08-04T14:38:26.016Z,30.20
2022-08-04T14:41:01.088Z,30.07
2022-08-04T14:43:30.866Z,29.81
2022-08-04T14:46:05.713Z,29.98
2022-08-04T14:48:33.591Z,29.87
2022-08-04T14:51:01.506Z,30.17
2022-08-04T14:53:30.255Z,30.21
2022-08-04T14:56:01.064Z,30.14
2022-08-04T14:58:36.285Z,29.72
2022-08-04T15:01:10.675Z,30.10
2022-08-04T15:03:49.586Z,30.14
2022-08-04T15:06:22.471Z,30.17
2022-08-04T15:08:51.772Z,29.94
2022-08-04T15:11:23.556Z,29.99
2022-08-04T15:13:52.560Z,29.89
2022-08-04T15:16:21.379Z,29.59
2022-08-04T15:18:49.912Z,29.72
2022-08-04T15:21:18.668Z,29.74
2022-08-04T15:23:47.327Z,29.72
2022-08-04T15:26:18.802Z,29.91
2022-08-04T15:28:55.066Z,29.96
2022-08-04T15:32:07.723Z,29.77
2022-08-04T15:34:13.712Z,29.99
2022-08-04T15:36:56.255Z,29.88
2022-08-04T15:39:35.966Z,29.79
2022-08-04T15:42:20.448Z,29.72
2022-08-04T15:45:19.357Z,29.20
2022-08-04T15:48:26.194Z,29.68
2022-08-04T15:51:06.922Z,29.67
2022-08-04T15:54:27.427Z,29.59
2022-08-04T15:57:01.591Z,29.86
2022-08-04T16:00:02.865Z,29.86
2022-08-04T16:02:38.481Z,29.80
2022-08-04T16:05:39.293Z,29.84
2022-08-04T16:08:25.500Z,29.77
2022-08-04T16:10:54.237Z,29.77
2022-08-04T16:13:23.347Z,29.63
2022-08-04T16:15:54.085Z,29.71
2022-08-04T16:18:43.766Z,29.70
2022-08-04T16:21:24.029Z,29.58
2022-08-04T16:24:16.954Z,29.79
2022-08-04T16:26:55.003Z,29.74
2022-08-04T16:29:35.756Z,29.65
2022-08-04T16:32:26.483Z,29.79
2022-08-04T16:34:59.873Z,29.80
2022-08-04T16:37:33.797Z,29.79
2022-08-04T16:40:36.422Z,29.64
2022-08-04T16:43:09.271Z,29.52
2022-08-04T16:45:52.567Z,28.25
2022-08-04T16:48:22.156Z,29.49
2022-08-04T16:50:55.577Z,29.09
2022-08-04T16:54:02.824Z,29.12
2022-08-04T16:56:14.560Z,28.60
2022-08-04T16:58:50.688Z,29.08
2022-08-04T17:01:33.460Z,28.95
2022-08-04T17:04:06.194Z,28.85
2022-08-04T17:06:37.845Z,28.86
2022-08-04T17:09:07.443Z,28.78
2022-08-04T17:11:35.581Z,27.53
2022-08-04T17:14:05.791Z,28.79
2022-08-04T17:16:35.948Z,28.75
2022-08-04T17:19:04.539Z,28.48
2022-08-04T17:21:35.825Z,28.53
2022-08-04T17:24:15.366Z,28.43
2022-08-04T17:26:53.615Z,27.40
2022-08-04T17:32:18.019Z,28.15
2022-08-04T17:34:49.419Z,28.12
2022-08-04T17:37:38.143Z,28.02
2022-08-04T17:40:12.941Z,27.94
2022-08-04T17:42:41.888Z,27.93
2022-08-04T17:48:00.523Z,27.62
2022-08-04T17:50:35.984Z,27.36
2022-08-04T17:54:01.890Z,27.55
2022-08-04T17:56:43.154Z,27.47
2022-08-04T17:59:52.249Z,27.44
2022-08-04T18:02:11.233Z,27.25
2022-08-04T18:05:05.997Z,27.37
2022-08-04T18:08:38.676Z,27.34
2022-08-04T18:10:44.675Z,27.27
2022-08-04T18:13:26.041Z,27.16
2022-08-04T18:16:02.864Z,27.07
2022-08-04T18:18:31.205Z,27.05
2022-08-04T18:21:03.152Z,27.04
2022-08-04T18:23:33.245Z,27.02
2022-08-04T18:26:03.472Z,27.00
2022-08-04T18:28:33.960Z,26.90
2022-08-04T18:31:02.492Z,26.88
2022-08-04T18:33:37.494Z,26.83
2022-08-04T18:36:35.532Z,26.83
2022-08-04T18:38:59.153Z,26.78
2022-08-04T18:42:02.057Z,26.76
2022-08-04T18:44:29.453Z,26.69
2022-08-04T18:47:22.449Z,26.44
2022-08-04T18:52:35.915Z,26.37
2022-08-04T18:55:13.366Z,26.29
2022-08-04T18:58:06.291Z,26.17
2022-08-04T19:00:45.660Z,25.84
2022-08-04T19:03:16.196Z,25.90
2022-08-04T19:05:49.984Z,25.85
2022-08-04T19:08:33.941Z,25.86
2022-08-04T19:11:37.114Z,25.56
2022-08-04T19:13:58.199Z,25.59
2022-08-04T19:16:28.833Z,25.44
2022-08-04T19:18:57.067Z,25.43
2022-08-04T19:22:00.576Z,24.19
2022-08-04T19:24:29.532Z,25.35
2022-08-04T19:27:06.567Z,25.47
2022-08-04T19:29:41.097Z,25.50
2022-08-04T19:32:15.544Z,25.50
2022-08-04T19:34:46.194Z,25.35
2022-08-04T19:37:55.914Z,25.20
2022-08-04T19:40:07.289Z,25.16
2022-08-04T19:42:36.202Z,24.88
2022-08-04T19:45:04.570Z,25.02
2022-08-04T19:50:23.708Z,24.82
2022-08-04T19:52:52.659Z,24.65
2022-08-04T19:55:22.305Z,24.62
2022-08-04T19:57:51.157Z,24.52
2022-08-04T20:00:33.652Z,24.62
2022-08-04T20:03:11.634Z,24.58
2022-08-04T20:05:54.787Z,24.27
2022-08-04T20:08:28.612Z,24.16
2022-08-04T20:10:57.779Z,23.99
2022-08-04T20:13:37.382Z,24.07
2022-08-04T20:16:28.190Z,24.17
2022-08-04T20:19:02.755Z,24.10
2022-08-04T20:21:36.481Z,23.84
2022-08-04T20:24:38.718Z,23.95
2022-08-04T20:26:53.314Z,23.92
2022-08-04T20:29:39.114Z,23.84
2022-08-04T20:32:10.281Z,23.87
2022-08-04T20:34:40.137Z,23.82
2022-08-04T20:37:10.431Z,23.77
2022-08-04T20:39:38.758Z,23.61
2022-08-04T20:42:07.309Z,23.54
2022-08-04T20:44:42.317Z,23.45
2022-08-04T20:47:14.996Z,23.38
2022-08-04T20:49:44.514Z,23.37
2022-08-04T20:52:19.922Z,23.27
2022-08-04T20:54:49.272Z,23.38
2022-08-04T20:57:50.030Z,23.25
2022-08-04T21:00:13.633Z,23.08
2022-08-04T21:02:41.559Z,22.97
2022-08-04T21:05:13.781Z,23.03
2022-08-04T21:07:43.799Z,23.08
2022-08-04T21:10:17.013Z,23.21
2022-08-04T21:12:49.647Z,23.21
2022-08-04T21:15:24.960Z,22.44
2022-08-04T21:17:57.959Z,22.82
2022-08-04T21:20:33.539Z,22.86
2022-08-04T21:23:04.895Z,22.60
2022-08-04T21:25:33.135Z,22.74
2022-08-04T21:28:10.892Z,22.69
2022-08-04T21:30:54.323Z,22.67
2022-08-04T21:33:49.882Z,22.62
2022-08-04T21:36:14.295Z,22.56
2022-08-04T21:38:51.599Z,22.59
2022-08-04T21:41:24.675Z,22.31
2022-08-04T21:43:55.693Z,22.52
2022-08-04T21:46:23.601Z,22.43
2022-08-04T21:48:52.285Z,22.25
2022-08-04T21:51:59.753Z,22.08
2022-08-04T21:54:16.919Z,22.01
2022-08-04T21:56:50.743Z,21.99
2022-08-04T21:59:23.682Z,21.95
2022-08-04T22:02:00.297Z,21.80
2022-08-04T22:04:29.027Z,21.88
2022-08-04T22:06:58.315Z,21.90
2022-08-04T22:09:31.569Z,21.85
2022-08-04T22:12:11.653Z,21.81
2022-08-04T22:14:40.037Z,21.86
2022-08-04T22:17:13.752Z,21.95
2022-08-04T22:19:55.026Z,21.89
2022-08-04T22:22:29.157Z,21.77
2022-08-04T22:25:01.956Z,21.86
2022-08-04T22:27:58.192Z,21.79
2022-08-04T22:30:33.214Z,21.82
2022-08-04T22:33:05.624Z,21.74
2022-08-04T22:35:48.880Z,21.57
2022-08-04T22:38:23.967Z,21.18
2022-08-04T22:41:01.662Z,21.36
2022-08-04T22:43:32.288Z,21.37
2022-08-04T22:46:03.625Z,21.39
2022-08-04T22:48:32.519Z,21.28
2022-08-04T22:51:00.749Z,21.20
2022-08-04T22:53:30.341Z,21.07
2022-08-04T22:56:09.278Z,20.90
2022-08-04T22:58:40.305Z,21.02
2022-08-04T23:01:08.802Z,20.79
2022-08-04T23:03:38.631Z,20.97
2022-08-04T23:06:10.640Z,20.88
2022-08-04T23:08:43.341Z,20.89
2022-08-04T23:11:16.376Z,20.83
2022-08-04T23:13:44.403Z,20.76
2022-08-04T23:16:13.064Z,20.73
2022-08-04T23:18:41.996Z,20.72
2022-08-04T23:21:11.517Z,20.71
2022-08-04T23:23:45.709Z,20.80
2022-08-04T23:26:27.756Z,20.61
2022-08-04T23:28:56.500Z,20.48
2022-08-04T23:31:24.742Z,20.77
2022-08-04T23:33:52.860Z,20.72
2022-08-04T23:36:26.363Z,20.78
2022-08-04T23:39:01.511Z,20.75
2022-08-04T23:41:54.392Z,20.69
2022-08-04T23:44:24.950Z,20.55
2022-08-04T23:46:59.156Z,20.69
2022-08-04T23:49:44.159Z,20.79
2022-08-04T23:52:23.169Z,20.99
2022-08-04T23:54:58.264Z,21.00
2022-08-04T23:57:30.906Z,20.84
